Aérodrome :
LOGIN :

S'inscrire | Disclaimer

   EN    FR    IT 

 










Légende :    VFR   VFR Marginal   IFR   IFR Intensif   IFR Très Intensif
Visi : 
Plafond : 
>= 8 km
>= 3000ft
5 à 8 km
1000 à 3000 ft
1500m à 5 km
500 à 1000 ft
800 à 1500m
200 à 500 ft
< 800m
< 200 ft
Symboles :   Orages  Brouillard  Fortes neiges  Fortes précipitations  Vent > 20 kt
SIGMETs :   Divers  Orages  Givrage  Turbulence  Onde Orograph.  Cendres Volcan.






- Altitude de l'aérodrome : 289 ft
- Code IATA : ZAD


LDZD - Zadar

DERNIER METAR :
  • 240430Z 13005KT CAVOK M02/M05 Q1028 NOSIG

METARs EXPIRÉS :
  • 240400Z 13005KT CAVOK M03/M05 Q1028 NOSIG
  • 240330Z 12005KT CAVOK M03/M06 Q1028 NOSIG
  • 240300Z 12005KT CAVOK M02/M05 Q1028 NOSIG
  • 240230Z 13005KT CAVOK M02/M04 Q1028
  • 240200Z 14005KT CAVOK M00/M04 Q1028

TAF TAF LDZD
Valide du 24 à 00h jusqu'au 25 à 00h UTC


232325Z 2400/2500 VRB02KT CAVOK TX13/2412Z TNM02/2405Z
PROB30
TEMPO 2402/2407 3000 BR
BECMG 2409/2411 14008KT



MET'MAP, la Météo Aéronautique d'un coup d'oeil ! - Copyright ORBIFLY Décembre 2007 - Disclaimer

ORBIFLY MET'MAP TEAM :

Programmation & Développement : Alexandra Zaïnal
Sur une idée originale de : Baudouin d'Aumeries
Assistance à la programmation : Marc-Olivier Méhu
Soutien technique & logistique : Manuel Goepfert

Contact : metmap@orbifly.com




SOURCES & CREDITS :

   NOAA